sensor_id;sensor_type;location;lat;lon;timestamp;P1;durP1;ratioP1;P2;durP2;ratioP2
57663;SDS011;43493;53.098;6.064;2023-07-20T00:01:08;3.03;;;1.10;;
57663;SDS011;43493;53.098;6.064;2023-07-20T00:03:34;2.53;;;1.20;;
57663;SDS011;43493;53.098;6.064;2023-07-20T00:05:59;4.50;;;1.67;;
57663;SDS011;43493;53.098;6.064;2023-07-20T00:08:25;1.70;;;1.20;;
57663;SDS011;43493;53.098;6.064;2023-07-20T00:10:51;2.80;;;1.30;;
57663;SDS011;43493;53.098;6.064;2023-07-20T00:13:16;3.67;;;1.30;;
57663;SDS011;43493;53.098;6.064;2023-07-20T00:15:44;1.97;;;1.30;;
57663;SDS011;43493;53.098;6.064;2023-07-20T00:18:09;2.90;;;1.30;;
57663;SDS011;43493;53.098;6.064;2023-07-20T00:20:35;4.10;;;1.50;;
57663;SDS011;43493;53.098;6.064;2023-07-20T00:23:01;2.13;;;1.20;;
57663;SDS011;43493;53.098;6.064;2023-07-20T00:25:26;2.30;;;1.50;;
57663;SDS011;43493;53.098;6.064;2023-07-20T00:27:52;2.47;;;1.30;;
57663;SDS011;43493;53.098;6.064;2023-07-20T00:30:18;3.17;;;1.30;;
57663;SDS011;43493;53.098;6.064;2023-07-20T00:32:44;4.07;;;1.23;;
57663;SDS011;43493;53.098;6.064;2023-07-20T00:35:10;3.20;;;1.40;;
57663;SDS011;43493;53.098;6.064;2023-07-20T00:37:36;5.40;;;1.70;;
57663;SDS011;43493;53.098;6.064;2023-07-20T00:40:04;2.47;;;1.27;;
57663;SDS011;43493;53.098;6.064;2023-07-20T00:42:30;2.53;;;1.30;;
57663;SDS011;43493;53.098;6.064;2023-07-20T00:44:56;2.30;;;1.33;;
57663;SDS011;43493;53.098;6.064;2023-07-20T00:47:22;2.53;;;1.33;;
57663;SDS011;43493;53.098;6.064;2023-07-20T00:49:48;4.03;;;1.60;;
57663;SDS011;43493;53.098;6.064;2023-07-20T00:52:15;3.40;;;1.47;;
57663;SDS011;43493;53.098;6.064;2023-07-20T00:54:41;3.03;;;1.20;;
57663;SDS011;43493;53.098;6.064;2023-07-20T00:57:07;2.77;;;1.37;;
57663;SDS011;43493;53.098;6.064;2023-07-20T00:59:34;3.23;;;1.40;;
57663;SDS011;43493;53.098;6.064;2023-07-20T01:02:01;2.67;;;1.50;;
57663;SDS011;43493;53.098;6.064;2023-07-20T01:04:27;3.53;;;1.60;;
57663;SDS011;43493;53.098;6.064;2023-07-20T01:06:58;4.50;;;1.50;;
57663;SDS011;43493;53.098;6.064;2023-07-20T01:09:44;4.70;;;1.63;;
57663;SDS011;43493;53.098;6.064;2023-07-20T01:12:27;4.30;;;1.47;;
57663;SDS011;43493;53.098;6.064;2023-07-20T01:15:07;3.57;;;1.67;;
57663;SDS011;43493;53.098;6.064;2023-07-20T01:17:33;3.30;;;1.23;;
57663;SDS011;43493;53.098;6.064;2023-07-20T01:19:59;3.20;;;1.40;;
57663;SDS011;43493;53.098;6.064;2023-07-20T01:25:48;2.13;;;1.50;;
57663;SDS011;43493;53.098;6.064;2023-07-20T01:28:35;3.50;;;1.90;;
57663;SDS011;43493;53.098;6.064;2023-07-20T01:31:26;3.60;;;1.87;;
57663;SDS011;43493;53.098;6.064;2023-07-20T01:33:56;3.33;;;1.83;;
57663;SDS011;43493;53.098;6.064;2023-07-20T01:36:24;4.37;;;1.60;;
57663;SDS011;43493;53.098;6.064;2023-07-20T01:38:53;3.40;;;1.80;;
57663;SDS011;43493;53.098;6.064;2023-07-20T01:41:20;4.47;;;1.97;;
57663;SDS011;43493;53.098;6.064;2023-07-20T01:43:46;3.80;;;1.77;;
57663;SDS011;43493;53.098;6.064;2023-07-20T01:46:11;3.00;;;1.57;;
57663;SDS011;43493;53.098;6.064;2023-07-20T01:48:37;4.00;;;1.80;;
57663;SDS011;43493;53.098;6.064;2023-07-20T01:51:03;4.33;;;1.93;;
57663;SDS011;43493;53.098;6.064;2023-07-20T01:53:28;3.10;;;1.73;;
57663;SDS011;43493;53.098;6.064;2023-07-20T01:55:54;3.73;;;2.10;;
57663;SDS011;43493;53.098;6.064;2023-07-20T01:58:20;4.27;;;2.17;;
57663;SDS011;43493;53.098;6.064;2023-07-20T02:00:46;4.57;;;2.07;;
57663;SDS011;43493;53.098;6.064;2023-07-20T02:03:12;6.13;;;2.37;;
57663;SDS011;43493;53.098;6.064;2023-07-20T02:05:38;4.70;;;2.10;;
57663;SDS011;43493;53.098;6.064;2023-07-20T02:08:04;5.03;;;2.00;;
57663;SDS011;43493;53.098;6.064;2023-07-20T02:10:29;3.30;;;1.80;;
57663;SDS011;43493;53.098;6.064;2023-07-20T02:12:55;5.63;;;2.40;;
57663;SDS011;43493;53.098;6.064;2023-07-20T02:15:21;3.90;;;2.10;;
57663;SDS011;43493;53.098;6.064;2023-07-20T02:17:47;4.20;;;2.20;;
57663;SDS011;43493;53.098;6.064;2023-07-20T02:20:13;3.67;;;1.80;;
57663;SDS011;43493;53.098;6.064;2023-07-20T02:22:39;3.37;;;2.10;;
57663;SDS011;43493;53.098;6.064;2023-07-20T02:25:05;5.93;;;1.80;;
57663;SDS011;43493;53.098;6.064;2023-07-20T02:27:32;5.03;;;2.20;;
57663;SDS011;43493;53.098;6.064;2023-07-20T02:29:59;3.63;;;1.87;;
57663;SDS011;43493;53.098;6.064;2023-07-20T02:32:24;3.83;;;2.03;;
57663;SDS011;43493;53.098;6.064;2023-07-20T02:34:50;4.07;;;2.20;;
57663;SDS011;43493;53.098;6.064;2023-07-20T02:37:16;5.17;;;2.00;;
57663;SDS011;43493;53.098;6.064;2023-07-20T02:39:42;3.87;;;1.80;;
57663;SDS011;43493;53.098;6.064;2023-07-20T02:42:08;3.70;;;1.80;;
57663;SDS011;43493;53.098;6.064;2023-07-20T02:44:34;4.17;;;2.10;;
57663;SDS011;43493;53.098;6.064;2023-07-20T02:47:00;3.73;;;2.20;;
57663;SDS011;43493;53.098;6.064;2023-07-20T02:49:26;5.03;;;2.30;;
57663;SDS011;43493;53.098;6.064;2023-07-20T02:51:52;3.00;;;1.90;;
57663;SDS011;43493;53.098;6.064;2023-07-20T02:54:18;3.47;;;1.87;;
57663;SDS011;43493;53.098;6.064;2023-07-20T02:56:43;5.07;;;2.00;;
57663;SDS011;43493;53.098;6.064;2023-07-20T02:59:09;7.00;;;2.23;;
57663;SDS011;43493;53.098;6.064;2023-07-20T03:01:35;3.40;;;2.10;;
57663;SDS011;43493;53.098;6.064;2023-07-20T03:04:01;5.10;;;2.17;;
57663;SDS011;43493;53.098;6.064;2023-07-20T03:06:27;6.53;;;2.33;;
57663;SDS011;43493;53.098;6.064;2023-07-20T03:08:53;3.23;;;2.00;;
57663;SDS011;43493;53.098;6.064;2023-07-20T03:11:19;5.37;;;3.00;;
57663;SDS011;43493;53.098;6.064;2023-07-20T03:13:45;4.10;;;1.87;;
57663;SDS011;43493;53.098;6.064;2023-07-20T03:16:12;3.87;;;2.17;;
57663;SDS011;43493;53.098;6.064;2023-07-20T03:18:42;3.00;;;1.87;;
57663;SDS011;43493;53.098;6.064;2023-07-20T03:21:09;5.60;;;2.13;;
57663;SDS011;43493;53.098;6.064;2023-07-20T03:23:39;3.40;;;2.07;;
57663;SDS011;43493;53.098;6.064;2023-07-20T03:26:05;4.10;;;2.07;;
57663;SDS011;43493;53.098;6.064;2023-07-20T03:28:33;4.27;;;2.40;;
57663;SDS011;43493;53.098;6.064;2023-07-20T03:31:03;3.90;;;2.20;;
57663;SDS011;43493;53.098;6.064;2023-07-20T03:33:29;5.47;;;2.20;;
57663;SDS011;43493;53.098;6.064;2023-07-20T03:35:55;3.60;;;2.20;;
57663;SDS011;43493;53.098;6.064;2023-07-20T03:38:22;5.30;;;2.50;;
57663;SDS011;43493;53.098;6.064;2023-07-20T03:40:56;4.60;;;2.57;;
57663;SDS011;43493;53.098;6.064;2023-07-20T03:43:24;3.53;;;2.40;;
57663;SDS011;43493;53.098;6.064;2023-07-20T03:45:50;4.93;;;2.77;;
57663;SDS011;43493;53.098;6.064;2023-07-20T03:48:17;6.33;;;2.87;;
57663;SDS011;43493;53.098;6.064;2023-07-20T03:50:47;5.27;;;2.57;;
57663;SDS011;43493;53.098;6.064;2023-07-20T03:53:14;4.23;;;2.67;;
57663;SDS011;43493;53.098;6.064;2023-07-20T03:55:41;6.67;;;2.50;;
57663;SDS011;43493;53.098;6.064;2023-07-20T03:58:09;5.90;;;2.50;;
57663;SDS011;43493;53.098;6.064;2023-07-20T04:00:35;4.50;;;2.80;;
57663;SDS011;43493;53.098;6.064;2023-07-20T04:03:00;4.60;;;2.40;;
57663;SDS011;43493;53.098;6.064;2023-07-20T04:05:26;3.97;;;2.43;;
57663;SDS011;43493;53.098;6.064;2023-07-20T04:07:52;4.10;;;2.43;;
57663;SDS011;43493;53.098;6.064;2023-07-20T04:10:18;5.47;;;2.70;;
57663;SDS011;43493;53.098;6.064;2023-07-20T04:12:44;3.60;;;2.30;;
57663;SDS011;43493;53.098;6.064;2023-07-20T04:15:12;4.00;;;2.27;;
57663;SDS011;43493;53.098;6.064;2023-07-20T04:17:38;3.90;;;2.27;;
57663;SDS011;43493;53.098;6.064;2023-07-20T04:20:05;7.27;;;2.77;;
57663;SDS011;43493;53.098;6.064;2023-07-20T04:22:32;5.93;;;2.50;;
57663;SDS011;43493;53.098;6.064;2023-07-20T04:24:58;5.90;;;2.60;;
57663;SDS011;43493;53.098;6.064;2023-07-20T04:27:23;4.00;;;2.30;;
57663;SDS011;43493;53.098;6.064;2023-07-20T04:29:49;4.13;;;2.53;;
57663;SDS011;43493;53.098;6.064;2023-07-20T04:32:15;4.07;;;2.60;;
57663;SDS011;43493;53.098;6.064;2023-07-20T04:34:40;6.77;;;2.50;;
57663;SDS011;43493;53.098;6.064;2023-07-20T04:37:07;5.23;;;2.60;;
57663;SDS011;43493;53.098;6.064;2023-07-20T04:39:33;4.83;;;2.70;;
57663;SDS011;43493;53.098;6.064;2023-07-20T04:41:59;4.20;;;2.90;;
57663;SDS011;43493;53.098;6.064;2023-07-20T04:44:24;4.50;;;2.50;;
57663;SDS011;43493;53.098;6.064;2023-07-20T04:46:50;4.67;;;2.77;;
57663;SDS011;43493;53.098;6.064;2023-07-20T04:49:16;6.50;;;2.37;;
57663;SDS011;43493;53.098;6.064;2023-07-20T04:51:41;5.53;;;2.47;;
57663;SDS011;43493;53.098;6.064;2023-07-20T04:54:07;4.00;;;2.33;;
57663;SDS011;43493;53.098;6.064;2023-07-20T04:56:33;6.43;;;2.40;;
57663;SDS011;43493;53.098;6.064;2023-07-20T04:58:59;5.27;;;2.70;;
57663;SDS011;43493;53.098;6.064;2023-07-20T05:01:25;4.17;;;2.37;;
57663;SDS011;43493;53.098;6.064;2023-07-20T05:03:52;4.00;;;2.40;;
57663;SDS011;43493;53.098;6.064;2023-07-20T05:06:18;3.83;;;2.50;;
57663;SDS011;43493;53.098;6.064;2023-07-20T05:08:44;5.03;;;2.43;;
57663;SDS011;43493;53.098;6.064;2023-07-20T05:11:10;6.30;;;2.40;;
57663;SDS011;43493;53.098;6.064;2023-07-20T05:13:37;5.17;;;2.27;;
57663;SDS011;43493;53.098;6.064;2023-07-20T05:16:03;4.63;;;2.20;;
57663;SDS011;43493;53.098;6.064;2023-07-20T05:18:28;4.13;;;2.20;;
57663;SDS011;43493;53.098;6.064;2023-07-20T05:20:54;4.90;;;2.20;;
57663;SDS011;43493;53.098;6.064;2023-07-20T05:23:20;6.07;;;2.50;;
57663;SDS011;43493;53.098;6.064;2023-07-20T05:25:47;4.10;;;2.30;;
57663;SDS011;43493;53.098;6.064;2023-07-20T05:28:19;4.30;;;2.20;;
57663;SDS011;43493;53.098;6.064;2023-07-20T05:30:44;4.17;;;2.07;;
57663;SDS011;43493;53.098;6.064;2023-07-20T05:33:10;4.17;;;1.90;;
57663;SDS011;43493;53.098;6.064;2023-07-20T05:35:36;3.93;;;2.27;;
57663;SDS011;43493;53.098;6.064;2023-07-20T05:38:02;4.50;;;1.83;;
57663;SDS011;43493;53.098;6.064;2023-07-20T05:40:30;4.50;;;2.20;;
57663;SDS011;43493;53.098;6.064;2023-07-20T05:42:56;3.80;;;2.00;;
57663;SDS011;43493;53.098;6.064;2023-07-20T05:45:22;4.20;;;1.90;;
57663;SDS011;43493;53.098;6.064;2023-07-20T05:47:48;4.10;;;2.00;;
57663;SDS011;43493;53.098;6.064;2023-07-20T05:50:13;3.60;;;1.93;;
57663;SDS011;43493;53.098;6.064;2023-07-20T05:52:39;4.57;;;1.83;;
57663;SDS011;43493;53.098;6.064;2023-07-20T05:55:06;4.47;;;2.10;;
57663;SDS011;43493;53.098;6.064;2023-07-20T05:57:32;4.50;;;2.20;;
57663;SDS011;43493;53.098;6.064;2023-07-20T05:59:58;6.43;;;1.80;;
57663;SDS011;43493;53.098;6.064;2023-07-20T06:02:23;4.53;;;1.90;;
57663;SDS011;43493;53.098;6.064;2023-07-20T06:04:49;3.87;;;1.80;;
57663;SDS011;43493;53.098;6.064;2023-07-20T06:07:15;5.40;;;1.97;;
57663;SDS011;43493;53.098;6.064;2023-07-20T06:09:41;4.70;;;1.57;;
57663;SDS011;43493;53.098;6.064;2023-07-20T06:12:06;4.97;;;1.50;;
57663;SDS011;43493;53.098;6.064;2023-07-20T06:14:33;4.87;;;1.40;;
57663;SDS011;43493;53.098;6.064;2023-07-20T06:16:58;5.23;;;1.50;;
57663;SDS011;43493;53.098;6.064;2023-07-20T06:19:24;3.17;;;1.40;;
57663;SDS011;43493;53.098;6.064;2023-07-20T06:21:50;2.83;;;1.30;;
57663;SDS011;43493;53.098;6.064;2023-07-20T06:24:19;3.70;;;1.40;;
57663;SDS011;43493;53.098;6.064;2023-07-20T06:26:44;3.53;;;1.20;;
57663;SDS011;43493;53.098;6.064;2023-07-20T06:29:10;3.40;;;1.27;;
57663;SDS011;43493;53.098;6.064;2023-07-20T06:31:36;4.20;;;1.20;;
57663;SDS011;43493;53.098;6.064;2023-07-20T06:34:02;3.27;;;1.37;;
57663;SDS011;43493;53.098;6.064;2023-07-20T06:36:28;4.15;;;1.40;;
57663;SDS011;43493;53.098;6.064;2023-07-20T06:38:54;2.72;;;1.23;;
57663;SDS011;43493;53.098;6.064;2023-07-20T06:41:21;4.55;;;1.50;;
57663;SDS011;43493;53.098;6.064;2023-07-20T06:43:47;3.22;;;1.20;;
57663;SDS011;43493;53.098;6.064;2023-07-20T06:46:13;3.40;;;1.25;;
57663;SDS011;43493;53.098;6.064;2023-07-20T06:48:39;6.53;;;1.35;;
57663;SDS011;43493;53.098;6.064;2023-07-20T06:51:05;4.07;;;1.40;;
57663;SDS011;43493;53.098;6.064;2023-07-20T06:53:31;2.80;;;1.25;;
57663;SDS011;43493;53.098;6.064;2023-07-20T06:55:56;3.83;;;1.55;;
57663;SDS011;43493;53.098;6.064;2023-07-20T06:58:25;2.92;;;1.65;;
57663;SDS011;43493;53.098;6.064;2023-07-20T07:00:51;3.17;;;1.50;;
57663;SDS011;43493;53.098;6.064;2023-07-20T07:03:17;2.33;;;1.73;;
57663;SDS011;43493;53.098;6.064;2023-07-20T07:05:43;3.17;;;1.70;;
57663;SDS011;43493;53.098;6.064;2023-07-20T07:08:12;2.85;;;1.60;;
57663;SDS011;43493;53.098;6.064;2023-07-20T07:10:38;3.90;;;1.50;;
57663;SDS011;43493;53.098;6.064;2023-07-20T07:13:03;2.75;;;1.65;;
57663;SDS011;43493;53.098;6.064;2023-07-20T07:15:29;2.58;;;1.40;;
57663;SDS011;43493;53.098;6.064;2023-07-20T07:17:55;4.38;;;1.50;;
57663;SDS011;43493;53.098;6.064;2023-07-20T07:20:21;3.33;;;1.50;;
57663;SDS011;43493;53.098;6.064;2023-07-20T07:22:49;6.28;;;1.80;;
57663;SDS011;43493;53.098;6.064;2023-07-20T07:25:17;4.47;;;2.05;;
57663;SDS011;43493;53.098;6.064;2023-07-20T07:27:43;2.72;;;1.42;;
57663;SDS011;43493;53.098;6.064;2023-07-20T07:30:09;3.47;;;1.50;;
57663;SDS011;43493;53.098;6.064;2023-07-20T07:32:35;2.92;;;1.40;;
57663;SDS011;43493;53.098;6.064;2023-07-20T07:35:00;3.78;;;2.00;;
57663;SDS011;43493;53.098;6.064;2023-07-20T07:37:26;3.40;;;1.75;;
57663;SDS011;43493;53.098;6.064;2023-07-20T07:39:52;4.75;;;2.10;;
57663;SDS011;43493;53.098;6.064;2023-07-20T07:42:17;4.03;;;2.15;;
57663;SDS011;43493;53.098;6.064;2023-07-20T07:44:46;3.42;;;1.90;;
57663;SDS011;43493;53.098;6.064;2023-07-20T07:47:12;5.53;;;2.30;;
57663;SDS011;43493;53.098;6.064;2023-07-20T07:49:37;3.80;;;1.77;;
57663;SDS011;43493;53.098;6.064;2023-07-20T07:52:03;4.35;;;2.10;;
57663;SDS011;43493;53.098;6.064;2023-07-20T07:54:29;5.63;;;2.10;;
57663;SDS011;43493;53.098;6.064;2023-07-20T07:56:55;4.72;;;2.38;;
57663;SDS011;43493;53.098;6.064;2023-07-20T07:59:21;3.30;;;1.85;;
57663;SDS011;43493;53.098;6.064;2023-07-20T08:01:47;4.75;;;2.17;;
57663;SDS011;43493;53.098;6.064;2023-07-20T08:04:13;3.03;;;1.83;;
57663;SDS011;43493;53.098;6.064;2023-07-20T08:06:39;4.13;;;2.30;;
57663;SDS011;43493;53.098;6.064;2023-07-20T08:09:05;4.93;;;2.05;;
57663;SDS011;43493;53.098;6.064;2023-07-20T08:11:30;4.55;;;1.80;;
57663;SDS011;43493;53.098;6.064;2023-07-20T08:13:59;5.78;;;2.00;;
57663;SDS011;43493;53.098;6.064;2023-07-20T08:16:25;3.95;;;1.70;;
57663;SDS011;43493;53.098;6.064;2023-07-20T08:18:51;3.05;;;1.85;;
57663;SDS011;43493;53.098;6.064;2023-07-20T08:21:17;4.75;;;2.15;;
57663;SDS011;43493;53.098;6.064;2023-07-20T08:23:43;3.78;;;2.03;;
57663;SDS011;43493;53.098;6.064;2023-07-20T08:26:08;4.10;;;1.90;;
57663;SDS011;43493;53.098;6.064;2023-07-20T08:28:34;4.38;;;2.20;;
57663;SDS011;43493;53.098;6.064;2023-07-20T08:31:00;7.90;;;2.85;;
57663;SDS011;43493;53.098;6.064;2023-07-20T08:33:25;5.97;;;1.90;;
57663;SDS011;43493;53.098;6.064;2023-07-20T08:35:54;4.50;;;2.22;;
57663;SDS011;43493;53.098;6.064;2023-07-20T08:38:21;4.18;;;2.13;;
57663;SDS011;43493;53.098;6.064;2023-07-20T08:40:47;4.55;;;2.10;;
57663;SDS011;43493;53.098;6.064;2023-07-20T08:43:13;3.60;;;2.00;;
57663;SDS011;43493;53.098;6.064;2023-07-20T08:45:42;4.63;;;2.60;;
57663;SDS011;43493;53.098;6.064;2023-07-20T08:48:10;5.00;;;2.20;;
57663;SDS011;43493;53.098;6.064;2023-07-20T08:50:37;5.50;;;2.05;;
57663;SDS011;43493;53.098;6.064;2023-07-20T08:53:03;4.28;;;1.95;;
57663;SDS011;43493;53.098;6.064;2023-07-20T08:55:29;4.53;;;2.17;;
57663;SDS011;43493;53.098;6.064;2023-07-20T08:57:57;4.50;;;2.13;;
57663;SDS011;43493;53.098;6.064;2023-07-20T09:00:24;4.03;;;2.17;;
57663;SDS011;43493;53.098;6.064;2023-07-20T09:02:53;5.50;;;2.20;;
57663;SDS011;43493;53.098;6.064;2023-07-20T09:05:19;4.65;;;2.80;;
57663;SDS011;43493;53.098;6.064;2023-07-20T09:07:46;5.00;;;2.03;;
57663;SDS011;43493;53.098;6.064;2023-07-20T09:10:12;4.80;;;2.53;;
57663;SDS011;43493;53.098;6.064;2023-07-20T09:12:39;6.95;;;2.45;;
57663;SDS011;43493;53.098;6.064;2023-07-20T09:15:05;7.18;;;2.80;;
57663;SDS011;43493;53.098;6.064;2023-07-20T09:17:32;7.25;;;2.35;;
57663;SDS011;43493;53.098;6.064;2023-07-20T09:19:58;7.15;;;2.55;;
57663;SDS011;43493;53.098;6.064;2023-07-20T09:22:30;4.90;;;2.08;;
57663;SDS011;43493;53.098;6.064;2023-07-20T09:24:57;5.70;;;2.30;;
57663;SDS011;43493;53.098;6.064;2023-07-20T09:27:31;4.05;;;1.95;;
57663;SDS011;43493;53.098;6.064;2023-07-20T09:30:01;4.45;;;2.10;;
57663;SDS011;43493;53.098;6.064;2023-07-20T09:32:27;5.82;;;2.05;;
57663;SDS011;43493;53.098;6.064;2023-07-20T09:34:53;7.95;;;2.28;;
57663;SDS011;43493;53.098;6.064;2023-07-20T09:37:23;3.80;;;1.83;;
57663;SDS011;43493;53.098;6.064;2023-07-20T09:39:51;4.10;;;1.80;;
57663;SDS011;43493;53.098;6.064;2023-07-20T09:42:21;4.28;;;2.13;;
57663;SDS011;43493;53.098;6.064;2023-07-20T09:44:49;5.05;;;1.70;;
57663;SDS011;43493;53.098;6.064;2023-07-20T09:47:21;3.92;;;2.00;;
57663;SDS011;43493;53.098;6.064;2023-07-20T09:49:47;6.22;;;2.13;;
57663;SDS011;43493;53.098;6.064;2023-07-20T09:52:14;3.95;;;1.80;;
57663;SDS011;43493;53.098;6.064;2023-07-20T09:54:41;4.17;;;1.80;;
57663;SDS011;43493;53.098;6.064;2023-07-20T09:57:11;7.95;;;1.80;;
57663;SDS011;43493;53.098;6.064;2023-07-20T09:59:39;6.00;;;1.90;;
57663;SDS011;43493;53.098;6.064;2023-07-20T10:02:04;4.33;;;1.70;;
57663;SDS011;43493;53.098;6.064;2023-07-20T10:05:00;6.00;;;1.65;;
57663;SDS011;43493;53.098;6.064;2023-07-20T10:07:30;3.30;;;1.70;;
57663;SDS011;43493;53.098;6.064;2023-07-20T10:09:56;5.00;;;1.70;;
57663;SDS011;43493;53.098;6.064;2023-07-20T10:12:26;4.20;;;1.73;;
57663;SDS011;43493;53.098;6.064;2023-07-20T10:14:59;5.83;;;1.83;;
57663;SDS011;43493;53.098;6.064;2023-07-20T10:17:37;4.53;;;1.90;;
57663;SDS011;43493;53.098;6.064;2023-07-20T10:20:14;5.93;;;2.10;;
57663;SDS011;43493;53.098;6.064;2023-07-20T10:22:44;3.53;;;1.70;;
57663;SDS011;43493;53.098;6.064;2023-07-20T10:25:15;3.43;;;1.70;;
57663;SDS011;43493;53.098;6.064;2023-07-20T10:27:41;6.50;;;2.10;;
57663;SDS011;43493;53.098;6.064;2023-07-20T10:30:08;4.13;;;1.57;;
57663;SDS011;43493;53.098;6.064;2023-07-20T10:32:34;5.17;;;1.60;;
57663;SDS011;43493;53.098;6.064;2023-07-20T10:35:00;5.03;;;1.67;;
57663;SDS011;43493;53.098;6.064;2023-07-20T10:48:14;4.20;;;1.67;;
57663;SDS011;43493;53.098;6.064;2023-07-20T10:50:45;4.40;;;1.90;;
57663;SDS011;43493;53.098;6.064;2023-07-20T10:53:31;4.20;;;1.63;;
57663;SDS011;43493;53.098;6.064;2023-07-20T10:56:15;4.43;;;1.90;;
57663;SDS011;43493;53.098;6.064;2023-07-20T10:58:45;5.77;;;1.80;;
57663;SDS011;43493;53.098;6.064;2023-07-20T11:01:14;3.60;;;2.00;;
57663;SDS011;43493;53.098;6.064;2023-07-20T11:03:42;5.63;;;2.33;;
57663;SDS011;43493;53.098;6.064;2023-07-20T11:08:56;7.37;;;3.37;;
57663;SDS011;43493;53.098;6.064;2023-07-20T11:13:55;8.17;;;2.73;;
57663;SDS011;43493;53.098;6.064;2023-07-20T11:16:41;6.10;;;2.17;;
57663;SDS011;43493;53.098;6.064;2023-07-20T11:19:21;7.10;;;2.80;;
57663;SDS011;43493;53.098;6.064;2023-07-20T11:21:51;6.13;;;2.10;;
57663;SDS011;43493;53.098;6.064;2023-07-20T11:24:18;8.90;;;2.40;;
57663;SDS011;43493;53.098;6.064;2023-07-20T11:26:54;5.93;;;2.40;;
57663;SDS011;43493;53.098;6.064;2023-07-20T11:29:21;6.00;;;2.30;;
57663;SDS011;43493;53.098;6.064;2023-07-20T11:31:48;5.50;;;2.17;;
57663;SDS011;43493;53.098;6.064;2023-07-20T11:34:15;5.97;;;2.27;;
57663;SDS011;43493;53.098;6.064;2023-07-20T11:36:43;4.60;;;2.27;;
57663;SDS011;43493;53.098;6.064;2023-07-20T11:39:17;3.30;;;1.70;;
57663;SDS011;43493;53.098;6.064;2023-07-20T11:41:50;4.50;;;2.20;;
57663;SDS011;43493;53.098;6.064;2023-07-20T11:44:17;4.57;;;2.03;;
57663;SDS011;43493;53.098;6.064;2023-07-20T11:46:43;5.80;;;2.17;;
57663;SDS011;43493;53.098;6.064;2023-07-20T11:49:10;4.60;;;2.33;;
57663;SDS011;43493;53.098;6.064;2023-07-20T11:51:36;4.90;;;2.20;;
57663;SDS011;43493;53.098;6.064;2023-07-20T11:54:03;4.77;;;2.60;;
57663;SDS011;43493;53.098;6.064;2023-07-20T11:56:30;4.77;;;2.30;;
57663;SDS011;43493;53.098;6.064;2023-07-20T11:58:57;4.60;;;1.83;;
57663;SDS011;43493;53.098;6.064;2023-07-20T12:01:28;4.10;;;2.00;;
57663;SDS011;43493;53.098;6.064;2023-07-20T12:03:57;3.37;;;1.90;;
57663;SDS011;43493;53.098;6.064;2023-07-20T12:06:27;4.10;;;1.93;;
57663;SDS011;43493;53.098;6.064;2023-07-20T12:08:54;4.37;;;2.20;;
57663;SDS011;43493;53.098;6.064;2023-07-20T12:11:34;4.80;;;2.10;;
57663;SDS011;43493;53.098;6.064;2023-07-20T12:14:01;4.30;;;1.80;;
57663;SDS011;43493;53.098;6.064;2023-07-20T12:16:28;5.60;;;2.10;;
57663;SDS011;43493;53.098;6.064;2023-07-20T12:19:01;6.00;;;2.83;;
57663;SDS011;43493;53.098;6.064;2023-07-20T12:21:31;5.47;;;2.20;;
57663;SDS011;43493;53.098;6.064;2023-07-20T12:23:57;4.43;;;2.17;;
57663;SDS011;43493;53.098;6.064;2023-07-20T12:26:24;5.57;;;2.00;;
57663;SDS011;43493;53.098;6.064;2023-07-20T12:28:51;7.20;;;2.00;;
57663;SDS011;43493;53.098;6.064;2023-07-20T12:31:17;7.53;;;2.17;;
57663;SDS011;43493;53.098;6.064;2023-07-20T12:33:43;4.37;;;1.90;;
57663;SDS011;43493;53.098;6.064;2023-07-20T12:36:09;4.53;;;2.00;;
57663;SDS011;43493;53.098;6.064;2023-07-20T12:38:35;5.90;;;2.20;;
57663;SDS011;43493;53.098;6.064;2023-07-20T12:41:01;6.23;;;2.20;;
57663;SDS011;43493;53.098;6.064;2023-07-20T12:43:28;3.43;;;1.70;;
57663;SDS011;43493;53.098;6.064;2023-07-20T12:45:54;4.30;;;2.00;;
57663;SDS011;43493;53.098;6.064;2023-07-20T12:48:21;4.67;;;1.87;;
57663;SDS011;43493;53.098;6.064;2023-07-20T12:50:47;4.33;;;1.90;;
57663;SDS011;43493;53.098;6.064;2023-07-20T12:53:12;3.77;;;2.07;;
57663;SDS011;43493;53.098;6.064;2023-07-20T12:55:38;4.20;;;1.77;;
57663;SDS011;43493;53.098;6.064;2023-07-20T12:58:05;2.93;;;1.70;;
57663;SDS011;43493;53.098;6.064;2023-07-20T13:00:31;4.50;;;1.70;;
57663;SDS011;43493;53.098;6.064;2023-07-20T13:02:57;4.63;;;2.47;;
57663;SDS011;43493;53.098;6.064;2023-07-20T13:05:23;5.33;;;2.00;;
57663;SDS011;43493;53.098;6.064;2023-07-20T13:07:49;4.63;;;2.00;;
57663;SDS011;43493;53.098;6.064;2023-07-20T13:10:15;4.87;;;2.27;;
57663;SDS011;43493;53.098;6.064;2023-07-20T13:12:41;4.37;;;1.97;;
57663;SDS011;43493;53.098;6.064;2023-07-20T13:15:08;3.53;;;1.80;;
57663;SDS011;43493;53.098;6.064;2023-07-20T13:17:34;3.97;;;1.80;;
57663;SDS011;43493;53.098;6.064;2023-07-20T13:20:02;4.17;;;1.90;;
57663;SDS011;43493;53.098;6.064;2023-07-20T13:22:32;4.17;;;1.70;;
57663;SDS011;43493;53.098;6.064;2023-07-20T13:24:59;3.23;;;1.63;;
57663;SDS011;43493;53.098;6.064;2023-07-20T13:27:25;5.27;;;2.40;;
57663;SDS011;43493;53.098;6.064;2023-07-20T13:29:51;4.00;;;1.90;;
57663;SDS011;43493;53.098;6.064;2023-07-20T13:32:17;4.23;;;2.37;;
57663;SDS011;43493;53.098;6.064;2023-07-20T13:34:43;3.77;;;1.50;;
57663;SDS011;43493;53.098;6.064;2023-07-20T13:37:10;3.73;;;1.80;;
57663;SDS011;43493;53.098;6.064;2023-07-20T13:39:36;4.07;;;1.73;;
57663;SDS011;43493;53.098;6.064;2023-07-20T13:42:02;4.00;;;1.70;;
57663;SDS011;43493;53.098;6.064;2023-07-20T13:44:30;5.03;;;1.90;;
57663;SDS011;43493;53.098;6.064;2023-07-20T13:46:57;5.60;;;1.90;;
57663;SDS011;43493;53.098;6.064;2023-07-20T13:49:22;3.40;;;1.80;;
57663;SDS011;43493;53.098;6.064;2023-07-20T13:51:48;2.67;;;1.43;;
57663;SDS011;43493;53.098;6.064;2023-07-20T13:54:14;2.77;;;1.87;;
57663;SDS011;43493;53.098;6.064;2023-07-20T13:56:40;4.47;;;1.83;;
57663;SDS011;43493;53.098;6.064;2023-07-20T13:59:06;4.30;;;1.80;;
57663;SDS011;43493;53.098;6.064;2023-07-20T14:01:31;2.90;;;1.60;;
57663;SDS011;43493;53.098;6.064;2023-07-20T14:04:00;4.10;;;1.70;;
57663;SDS011;43493;53.098;6.064;2023-07-20T14:06:29;5.37;;;1.77;;
57663;SDS011;43493;53.098;6.064;2023-07-20T14:08:56;4.77;;;1.73;;
57663;SDS011;43493;53.098;6.064;2023-07-20T14:11:22;3.90;;;1.60;;
57663;SDS011;43493;53.098;6.064;2023-07-20T14:13:49;3.60;;;1.53;;
57663;SDS011;43493;53.098;6.064;2023-07-20T14:16:16;2.67;;;1.60;;
57663;SDS011;43493;53.098;6.064;2023-07-20T14:18:41;3.93;;;1.63;;
57663;SDS011;43493;53.098;6.064;2023-07-20T14:21:07;3.97;;;1.90;;
57663;SDS011;43493;53.098;6.064;2023-07-20T14:23:33;3.23;;;1.70;;
57663;SDS011;43493;53.098;6.064;2023-07-20T14:25:59;3.63;;;1.87;;
57663;SDS011;43493;53.098;6.064;2023-07-20T14:28:25;4.40;;;1.80;;
57663;SDS011;43493;53.098;6.064;2023-07-20T14:30:50;3.53;;;1.70;;
57663;SDS011;43493;53.098;6.064;2023-07-20T14:33:16;2.40;;;1.30;;
57663;SDS011;43493;53.098;6.064;2023-07-20T14:35:42;4.53;;;1.67;;
57663;SDS011;43493;53.098;6.064;2023-07-20T14:38:07;3.47;;;1.60;;
57663;SDS011;43493;53.098;6.064;2023-07-20T14:40:33;2.80;;;1.40;;
57663;SDS011;43493;53.098;6.064;2023-07-20T14:42:59;3.87;;;1.60;;
57663;SDS011;43493;53.098;6.064;2023-07-20T14:45:28;3.20;;;1.70;;
57663;SDS011;43493;53.098;6.064;2023-07-20T14:47:54;3.47;;;1.50;;
57663;SDS011;43493;53.098;6.064;2023-07-20T14:50:20;3.70;;;1.60;;
57663;SDS011;43493;53.098;6.064;2023-07-20T14:52:46;3.20;;;1.40;;
57663;SDS011;43493;53.098;6.064;2023-07-20T14:55:12;3.27;;;1.57;;
57663;SDS011;43493;53.098;6.064;2023-07-20T14:57:38;3.57;;;1.53;;
57663;SDS011;43493;53.098;6.064;2023-07-20T15:00:04;3.37;;;1.60;;
57663;SDS011;43493;53.098;6.064;2023-07-20T15:02:38;3.73;;;1.73;;
57663;SDS011;43493;53.098;6.064;2023-07-20T15:05:08;4.57;;;2.13;;
57663;SDS011;43493;53.098;6.064;2023-07-20T15:07:34;5.20;;;1.63;;